Potrero, California
Current Conditions -  °F | °C
As of 6:48 PM on Sunday 21 Dec 2014 (Local Time) from MMTJ Reporting Station
Broken Clouds Broken Clouds  
Wind Chill: 57°   Ceiling: 20000
Heat Index: 57°   Visibility: 7mi
Dew Point: 54°   Wind: 6mph
Humidity: 88%   Direction: 300°WNW
Pressure: 30.08"   Gusts: NA
Location:  32.6°N, 116.61°W
Report Text: MMTJ 220248Z 30005KT 7SM BKN200 14/12 A3008 RMK SLP226 52005 903 8/002 HZY
Loading
Personal Weather Stations






























Interactive Weather Map New forecast layout! Learn more

10-Day Weather Forecast

Advertisements
Track Severe Weather on mobile